Time;durP1;ratioP1;P1;durP2;ratioP2;P2;SDS_P1;SDS_P2;PMS_P1;PMS_P2;Temp;Humidity;BMP_temperature;BMP_pressure;BME280_temperature;BME280_humidity;BME280_pressure;Samples;Min_cycle;Max_cycle;Signal;HPM_P1;HPM_P2
2023/02/25 00:01:12;;;;;;;2.15;0.75;;;4.00;99.90;;;;;;5047631;28;20246;-68
2023/02/25 00:03:41;;;;;;;0.75;0.75;;;4.00;99.90;;;;;;5037086;28;20259;-68
2023/02/25 00:06:12;;;;;;;2.22;1.98;;;3.90;99.90;;;;;;5026700;28;20721;-68
2023/02/25 00:08:39;;;;;;;5.10;0.93;;;3.90;99.90;;;;;;5036817;28;20204;-68
2023/02/25 00:11:07;;;;;;;2.13;1.92;;;3.90;99.90;;;;;;5045872;28;20224;-68
2023/02/25 00:13:35;;;;;;;2.88;1.48;;;3.90;99.90;;;;;;5044998;28;20204;-67
2023/02/25 00:16:04;;;;;;;1.02;0.80;;;3.90;99.90;;;;;;5045575;28;20228;-67
2023/02/25 00:18:31;;;;;;;0.60;0.60;;;3.90;99.90;;;;;;5043970;28;20211;-66
2023/02/25 00:21:05;;;;;;;2.45;1.63;;;3.80;99.90;;;;;;5046687;28;20232;-66
2023/02/25 00:23:32;;;;;;;2.05;1.85;;;3.80;99.90;;;;;;5035238;28;20270;-67
2023/02/25 00:26:00;;;;;;;0.93;0.93;;;3.80;99.90;;;;;;5026577;28;20250;-67
2023/02/25 00:28:26;;;;;;;0.43;0.40;;;3.80;99.90;;;;;;5029113;28;20192;-67
2023/02/25 00:30:53;;;;;;;0.70;0.70;;;3.80;99.90;;;;;;5047088;28;20229;-67
2023/02/25 00:33:20;;;;;;;4.00;1.23;;;3.80;99.90;;;;;;5031630;28;20200;-67
2023/02/25 00:35:48;;;;;;;2.55;1.48;;;3.80;99.90;;;;;;5027786;28;20232;-67
2023/02/25 00:38:17;;;;;;;0.65;0.65;;;3.80;99.90;;;;;;5026664;28;20774;-67
2023/02/25 00:40:43;;;;;;;1.15;1.10;;;3.80;99.90;;;;;;5047815;28;20235;-67
2023/02/25 00:43:10;;;;;;;3.00;2.08;;;3.80;99.90;;;;;;5042232;28;20196;-67
2023/02/25 00:45:39;;;;;;;0.95;0.85;;;3.80;99.90;;;;;;5027669;28;20218;-67
2023/02/25 00:48:06;;;;;;;1.70;0.95;;;3.90;99.90;;;;;;5034532;28;20207;-68
2023/02/25 00:50:33;;;;;;;4.00;1.90;;;3.80;99.90;;;;;;5051428;28;20303;-67
2023/02/25 00:53:00;;;;;;;1.70;1.67;;;3.80;99.90;;;;;;5043367;28;20193;-67
2023/02/25 00:55:32;;;;;;;3.38;1.05;;;3.90;99.90;;;;;;5031452;28;20240;-67
2023/02/25 00:58:00;;;;;;;2.38;0.55;;;3.90;99.90;;;;;;5035900;28;20576;-68
2023/02/25 01:00:27;;;;;;;1.52;1.42;;;3.90;99.90;;;;;;5070314;28;20762;-66
2023/02/25 01:02:56;;;;;;;1.58;1.10;;;3.90;99.90;;;;;;5060939;28;20202;-67
2023/02/25 01:05:24;;;;;;;6.88;1.33;;;3.90;99.90;;;;;;5050314;28;20283;-67
2023/02/25 01:07:53;;;;;;;3.60;1.55;;;3.90;99.90;;;;;;5050797;28;20206;-67
2023/02/25 01:10:20;;;;;;;1.02;0.82;;;3.90;99.90;;;;;;5033143;28;20204;-67
2023/02/25 01:12:48;;;;;;;0.45;0.45;;;4.00;99.90;;;;;;5041627;28;20208;-67
2023/02/25 01:15:15;;;;;;;3.75;0.88;;;4.00;99.90;;;;;;5032561;28;20203;-67
2023/02/25 01:17:42;;;;;;;0.68;0.68;;;4.00;99.90;;;;;;5030790;28;20215;-67
2023/02/25 01:20:11;;;;;;;2.08;1.98;;;4.00;99.90;;;;;;5034956;28;20210;-67
2023/02/25 01:22:40;;;;;;;0.75;0.75;;;4.00;99.90;;;;;;5050417;28;20265;-67
2023/02/25 01:25:12;;;;;;;0.75;0.70;;;4.00;99.90;;;;;;5050302;28;20203;-67
2023/02/25 01:27:38;;;;;;;0.70;0.70;;;4.10;99.90;;;;;;5050023;28;20231;-67
2023/02/25 01:30:09;;;;;;;1.60;1.50;;;4.10;99.90;;;;;;5029314;28;20554;-67
2023/02/25 01:32:36;;;;;;;1.45;0.60;;;4.00;99.90;;;;;;5039126;28;20204;-67
2023/02/25 01:35:02;;;;;;;1.38;1.27;;;4.00;99.90;;;;;;5050458;28;20207;-67
2023/02/25 01:37:29;;;;;;;0.40;0.30;;;3.90;99.90;;;;;;5031009;28;20219;-67
2023/02/25 01:39:56;;;;;;;0.75;0.75;;;3.80;99.90;;;;;;5041457;28;20780;-68
2023/02/25 01:42:23;;;;;;;0.88;0.70;;;3.80;99.90;;;;;;5063098;28;20310;-67
2023/02/25 01:45:25;;;;;;;1.90;1.80;;;3.90;99.90;;;;;;5048464;28;20204;-67
2023/02/25 01:47:57;;;;;;;1.40;1.20;;;3.80;99.90;;;;;;5046843;28;20333;-67
2023/02/25 01:50:26;;;;;;;0.93;0.57;;;3.90;99.90;;;;;;5045570;28;20224;-67
2023/02/25 01:52:56;;;;;;;0.77;0.77;;;3.90;99.90;;;;;;5049976;28;20252;-67
2023/02/25 01:55:23;;;;;;;0.88;0.88;;;3.90;99.90;;;;;;5049571;28;20308;-67
2023/02/25 01:57:51;;;;;;;1.35;1.25;;;4.00;99.90;;;;;;5050606;28;20211;-67
2023/02/25 02:00:19;;;;;;;0.80;0.70;;;3.80;99.90;;;;;;5047460;28;20203;-67
2023/02/25 02:02:49;;;;;;;1.58;0.77;;;3.70;99.90;;;;;;5048149;28;20271;-67
2023/02/25 02:05:17;;;;;;;0.60;0.60;;;3.80;99.90;;;;;;5027713;28;20214;-67
2023/02/25 02:07:44;;;;;;;1.88;0.88;;;3.70;99.90;;;;;;5029664;28;20746;-67
2023/02/25 02:10:11;;;;;;;1.48;1.42;;;3.80;99.90;;;;;;5027985;28;20631;-66
2023/02/25 02:12:41;;;;;;;1.10;0.80;;;3.70;99.90;;;;;;5039495;28;20307;-67
2023/02/25 02:15:10;;;;;;;1.02;1.02;;;3.70;99.90;;;;;;5046662;28;20196;-67
2023/02/25 02:17:46;;;;;;;1.50;0.80;;;3.70;99.90;;;;;;5029765;28;20209;-67
2023/02/25 02:20:19;;;;;;;3.17;0.70;;;3.70;99.90;;;;;;5030366;28;20188;-67
2023/02/25 02:22:56;;;;;;;1.27;0.73;;;3.70;99.90;;;;;;5048191;28;20223;-67
2023/02/25 02:26:09;;;;;;;0.40;0.38;;;3.70;99.90;;;;;;5049196;28;20221;-66
2023/02/25 02:29:01;;;;;;;1.15;0.60;;;3.70;99.90;;;;;;5048357;28;20228;-67
2023/02/25 02:31:40;;;;;;;1.02;0.52;;;3.60;99.90;;;;;;5036851;28;20252;-67
2023/02/25 02:34:26;;;;;;;1.13;0.73;;;3.60;99.90;;;;;;5047847;28;20214;-67
2023/02/25 02:37:04;;;;;;;0.40;0.40;;;3.50;99.90;;;;;;5048729;28;20637;-67
2023/02/25 02:39:44;;;;;;;3.92;1.77;;;3.50;99.90;;;;;;5042925;28;20204;-66
2023/02/25 02:42:20;;;;;;;2.55;1.83;;;3.50;99.90;;;;;;5055212;28;20310;-66
2023/02/25 02:44:56;;;;;;;1.15;1.00;;;3.50;99.90;;;;;;5047540;28;20718;-66
2023/02/25 02:47:30;;;;;;;2.15;1.50;;;3.60;99.90;;;;;;5048036;28;20236;-68
2023/02/25 02:50:01;;;;;;;1.08;0.57;;;3.50;99.90;;;;;;5028316;28;20205;-69
2023/02/25 02:52:31;;;;;;;1.20;0.55;;;3.50;99.90;;;;;;5034864;28;20191;-67
2023/02/25 02:55:02;;;;;;;2.72;1.08;;;3.50;99.90;;;;;;5049000;28;20200;-66
2023/02/25 02:57:33;;;;;;;1.33;0.55;;;3.50;99.90;;;;;;5048790;28;20594;-67
2023/02/25 03:00:12;;;;;;;1.10;1.00;;;3.50;99.90;;;;;;5066568;28;20201;-66
2023/02/25 03:02:43;;;;;;;1.10;1.10;;;3.50;99.90;;;;;;5055756;28;20196;-67
2023/02/25 03:05:15;;;;;;;0.40;0.30;;;3.60;99.90;;;;;;5028598;28;20207;-67
2023/02/25 03:07:47;;;;;;;1.15;0.85;;;3.60;99.90;;;;;;5028372;28;20305;-67
2023/02/25 03:10:18;;;;;;;1.15;0.50;;;3.60;99.90;;;;;;5043739;28;20200;-68
2023/02/25 03:12:45;;;;;;;1.48;1.27;;;3.60;99.90;;;;;;5042569;28;20193;-67
2023/02/25 03:15:13;;;;;;;0.57;0.50;;;3.60;99.90;;;;;;5043950;28;20295;-66
2023/02/25 03:17:43;;;;;;;0.85;0.60;;;3.50;99.90;;;;;;5047833;28;20279;-67
2023/02/25 03:20:18;;;;;;;0.40;0.35;;;3.50;99.90;;;;;;5026969;28;20213;-67
2023/02/25 03:22:47;;;;;;;1.48;0.80;;;3.50;99.90;;;;;;5043628;28;20291;-67
2023/02/25 03:25:20;;;;;;;0.40;0.30;;;3.40;99.90;;;;;;5048362;28;20207;-67
2023/02/25 03:27:51;;;;;;;0.80;0.80;;;3.40;99.90;;;;;;5044497;28;20235;-67
2023/02/25 03:30:25;;;;;;;2.53;1.10;;;3.40;99.90;;;;;;5043772;28;20724;-67
2023/02/25 03:32:59;;;;;;;0.85;0.57;;;3.40;99.90;;;;;;5045768;28;20196;-66
2023/02/25 03:35:29;;;;;;;0.30;0.30;;;3.40;99.90;;;;;;5047601;28;20249;-67
2023/02/25 03:38:02;;;;;;;1.00;1.00;;;3.40;99.90;;;;;;5047582;28;20230;-67
2023/02/25 03:40:32;;;;;;;0.30;0.30;;;3.40;99.90;;;;;;5051120;28;20584;-66
2023/02/25 03:43:06;;;;;;;0.50;0.30;;;3.40;99.90;;;;;;5067338;28;20207;-67
2023/02/25 03:45:36;;;;;;;0.40;0.30;;;3.40;99.90;;;;;;5048330;28;20223;-67
2023/02/25 03:48:05;;;;;;;0.70;0.52;;;3.40;99.90;;;;;;5042945;28;20223;-67
2023/02/25 03:50:37;;;;;;;0.85;0.45;;;3.40;99.90;;;;;;5027937;28;20228;-67
2023/02/25 03:53:04;;;;;;;0.80;0.70;;;3.30;99.90;;;;;;5036702;28;20228;-67
2023/02/25 03:55:32;;;;;;;0.65;0.65;;;3.30;99.90;;;;;;5047972;28;20215;-66
2023/02/25 03:58:00;;;;;;;0.43;0.43;;;3.30;99.90;;;;;;5046519;28;20291;-67
2023/02/25 04:00:30;;;;;;;7.25;0.63;;;3.30;99.90;;;;;;5046823;28;20243;-67
2023/02/25 04:02:58;;;;;;;0.75;0.75;;;3.30;99.90;;;;;;5034948;28;20709;-68
2023/02/25 04:05:27;;;;;;;0.50;0.45;;;3.20;99.90;;;;;;5027508;28;20212;-67
2023/02/25 04:07:54;;;;;;;0.65;0.65;;;3.30;99.90;;;;;;5027359;28;20717;-66
2023/02/25 04:10:22;;;;;;;0.30;0.30;;;3.30;99.90;;;;;;5026446;28;20698;-67
2023/02/25 04:12:50;;;;;;;0.43;0.30;;;3.30;99.90;;;;;;5028437;28;20209;-67
2023/02/25 04:15:17;;;;;;;0.52;0.30;;;3.30;99.90;;;;;;5027554;28;20211;-67
2023/02/25 04:17:45;;;;;;;0.82;0.47;;;3.20;99.90;;;;;;5030307;28;20281;-66
2023/02/25 04:20:13;;;;;;;0.40;0.40;;;3.20;99.90;;;;;;5046136;28;20200;-67
2023/02/25 04:22:41;;;;;;;0.80;0.80;;;3.20;99.90;;;;;;5040849;28;20207;-66
2023/02/25 04:25:08;;;;;;;0.57;0.57;;;3.20;99.90;;;;;;5027319;28;20209;-67
2023/02/25 04:27:35;;;;;;;0.30;0.30;;;3.30;99.90;;;;;;5027765;28;20307;-67
2023/02/25 04:30:02;;;;;;;0.82;0.68;;;3.30;99.90;;;;;;5046515;28;20204;-67
2023/02/25 04:32:29;;;;;;;0.63;0.60;;;3.30;99.90;;;;;;5039257;28;20189;-67
2023/02/25 04:34:56;;;;;;;0.30;0.20;;;3.30;99.90;;;;;;5027646;28;20208;-67
2023/02/25 04:37:23;;;;;;;0.88;0.70;;;3.30;99.90;;;;;;5026824;28;20228;-67
2023/02/25 04:39:51;;;;;;;0.55;0.55;;;3.30;99.90;;;;;;5036440;28;20199;-67
2023/02/25 04:42:18;;;;;;;0.40;0.30;;;3.30;99.90;;;;;;5061767;28;20223;-67
2023/02/25 04:44:45;;;;;;;0.63;0.57;;;3.30;99.90;;;;;;5039441;28;20204;-67
2023/02/25 04:47:11;;;;;;;0.50;0.50;;;3.30;99.90;;;;;;5026756;28;20224;-67
2023/02/25 04:49:43;;;;;;;0.60;0.40;;;3.20;99.90;;;;;;5044058;28;20204;-67
2023/02/25 04:52:11;;;;;;;0.40;0.35;;;3.20;99.90;;;;;;5046835;28;20289;-67
2023/02/25 04:54:38;;;;;;;1.05;0.68;;;3.10;99.90;;;;;;5046363;28;20832;-67
2023/02/25 04:57:06;;;;;;;0.50;0.50;;;3.10;99.90;;;;;;5046658;28;20251;-67
2023/02/25 04:59:33;;;;;;;0.90;0.55;;;3.10;99.90;;;;;;5041960;28;20227;-67
2023/02/25 05:02:00;;;;;;;0.40;0.40;;;3.10;99.90;;;;;;5045918;28;20220;-66
2023/02/25 05:04:26;;;;;;;1.30;1.15;;;3.20;99.90;;;;;;5047012;28;20192;-67
2023/02/25 05:06:53;;;;;;;0.57;0.57;;;3.20;99.90;;;;;;5046495;28;20730;-67
2023/02/25 05:09:21;;;;;;;0.47;0.47;;;3.10;99.90;;;;;;5036918;28;20562;-67
2023/02/25 05:11:47;;;;;;;0.35;0.32;;;3.10;99.90;;;;;;5027281;28;20232;-67
2023/02/25 05:14:15;;;;;;;0.30;0.20;;;3.10;99.90;;;;;;5046701;28;20195;-66
2023/02/25 05:16:42;;;;;;;0.30;0.30;;;3.10;99.90;;;;;;5046803;28;20232;-67
2023/02/25 05:19:14;;;;;;;0.30;0.20;;;3.10;99.90;;;;;;5031646;28;20288;-66
2023/02/25 05:21:41;;;;;;;0.52;0.52;;;3.10;99.90;;;;;;5026286;28;20225;-67
2023/02/25 05:24:08;;;;;;;0.40;0.30;;;3.00;99.90;;;;;;5033607;28;20196;-67
2023/02/25 05:26:35;;;;;;;0.30;0.20;;;3.00;99.90;;;;;;5046475;28;20224;-67
2023/02/25 05:29:01;;;;;;;0.30;0.30;;;3.00;99.90;;;;;;5030836;28;20235;-66
2023/02/25 05:31:30;;;;;;;0.40;0.40;;;3.00;99.90;;;;;;5026957;28;20602;-67
2023/02/25 05:33:57;;;;;;;0.40;0.40;;;3.00;99.90;;;;;;5045473;28;20200;-67
2023/02/25 05:36:23;;;;;;;1.25;0.60;;;3.00;99.90;;;;;;5049734;28;21058;-67
2023/02/25 05:38:53;;;;;;;0.30;0.30;;;2.90;99.90;;;;;;5044402;28;20197;-67
2023/02/25 05:41:20;;;;;;;1.05;0.60;;;2.90;99.90;;;;;;5065447;28;20226;-66
2023/02/25 05:43:46;;;;;;;0.75;0.75;;;2.90;99.90;;;;;;5053075;28;20303;-67
2023/02/25 05:46:14;;;;;;;0.45;0.45;;;2.90;99.90;;;;;;5050510;28;20224;-66
2023/02/25 05:48:45;;;;;;;0.50;0.32;;;2.90;99.90;;;;;;5036629;28;20648;-68
2023/02/25 05:51:15;;;;;;;0.30;0.25;;;2.90;99.90;;;;;;5030244;28;20590;-66
2023/02/25 05:53:43;;;;;;;0.60;0.40;;;2.80;99.90;;;;;;5043515;28;20330;-66
2023/02/25 05:56:12;;;;;;;0.40;0.32;;;2.90;99.90;;;;;;5049259;28;20637;-66
2023/02/25 05:58:40;;;;;;;0.30;0.30;;;2.90;99.90;;;;;;5044675;28;20842;-67
2023/02/25 06:01:09;;;;;;;0.30;0.30;;;2.90;99.90;;;;;;5069726;28;20314;-67
2023/02/25 06:03:36;;;;;;;0.40;0.35;;;2.90;99.90;;;;;;5056142;28;20658;-67
2023/02/25 06:06:06;;;;;;;1.05;0.90;;;2.90;99.90;;;;;;5049863;28;20556;-66
2023/02/25 06:08:33;;;;;;;1.30;1.20;;;2.90;99.90;;;;;;5048890;28;20232;-67
2023/02/25 06:11:01;;;;;;;1.10;0.50;;;3.00;99.90;;;;;;5049343;28;20588;-66
2023/02/25 06:13:28;;;;;;;0.40;0.40;;;3.00;99.90;;;;;;5034363;28;20204;-67
2023/02/25 06:15:55;;;;;;;0.30;0.20;;;3.00;99.90;;;;;;5029135;28;20234;-67
2023/02/25 06:18:22;;;;;;;0.85;0.85;;;3.00;99.90;;;;;;5036757;28;20192;-67
2023/02/25 06:20:49;;;;;;;0.60;0.43;;;3.00;99.90;;;;;;5049238;28;20228;-66
2023/02/25 06:23:17;;;;;;;0.52;0.35;;;3.00;99.90;;;;;;5040874;28;20193;-66
2023/02/25 06:25:44;;;;;;;0.40;0.40;;;3.00;99.90;;;;;;5029227;28;20597;-66
2023/02/25 06:28:10;;;;;;;1.58;1.10;;;3.00;99.90;;;;;;5032714;28;20249;-68
2023/02/25 06:30:37;;;;;;;1.35;1.25;;;3.00;99.90;;;;;;5049030;28;20231;-66
2023/02/25 06:33:04;;;;;;;0.30;0.20;;;3.00;99.90;;;;;;5036934;28;20205;-67
2023/02/25 06:35:31;;;;;;;0.50;0.40;;;3.00;99.90;;;;;;5029470;28;20250;-67
2023/02/25 06:38:00;;;;;;;0.30;0.30;;;2.90;99.90;;;;;;5028743;28;20215;-67
2023/02/25 06:40:28;;;;;;;0.73;0.65;;;2.90;99.90;;;;;;5056264;28;20221;-66
2023/02/25 06:42:55;;;;;;;0.73;0.55;;;2.90;99.90;;;;;;5068620;28;20211;-67
2023/02/25 06:45:22;;;;;;;0.35;0.35;;;2.90;99.90;;;;;;5048260;28;20204;-66
2023/02/25 06:47:49;;;;;;;0.43;0.43;;;2.90;99.90;;;;;;5044310;28;20568;-66
2023/02/25 06:50:16;;;;;;;0.30;0.30;;;3.00;99.90;;;;;;5027882;28;20597;-66
2023/02/25 06:52:44;;;;;;;0.70;0.70;;;3.00;99.90;;;;;;5028996;28;20279;-66
2023/02/25 06:55:11;;;;;;;0.30;0.20;;;3.00;99.90;;;;;;5029055;28;20638;-67
2023/02/25 06:57:39;;;;;;;0.50;0.40;;;3.00;99.90;;;;;;5028898;28;20204;-66
2023/02/25 07:00:08;;;;;;;0.93;0.40;;;3.10;99.90;;;;;;5027676;28;20211;-67
2023/02/25 07:02:35;;;;;;;0.30;0.28;;;3.00;99.90;;;;;;5037152;28;20204;-67
2023/02/25 07:05:01;;;;;;;0.35;0.35;;;3.10;99.60;;;;;;5048770;28;20208;-67
2023/02/25 07:07:29;;;;;;;0.50;0.30;;;3.10;99.90;;;;;;5048353;28;20238;-66
2023/02/25 07:09:55;;;;;;;0.60;0.30;;;3.10;99.70;;;;;;5047244;28;20207;-67
2023/02/25 07:12:22;;;;;;;0.40;0.40;;;3.00;99.50;;;;;;5041423;28;20541;-66
2023/02/25 07:14:50;;;;;;;0.60;0.60;;;3.10;99.90;;;;;;5028708;28;20205;-66
2023/02/25 07:17:17;;;;;;;1.15;1.05;;;3.10;99.80;;;;;;5028724;28;20239;-66
2023/02/25 07:19:44;;;;;;;0.30;0.30;;;3.20;99.60;;;;;;5045287;28;20191;-67
2023/02/25 07:22:14;;;;;;;0.45;0.43;;;3.20;99.50;;;;;;5047813;28;20744;-67
2023/02/25 07:24:41;;;;;;;0.30;0.30;;;3.20;99.30;;;;;;5047991;28;20610;-66
2023/02/25 07:27:08;;;;;;;0.57;0.57;;;3.30;99.20;;;;;;5047978;28;20224;-67
2023/02/25 07:29:34;;;;;;;0.60;0.60;;;3.30;98.50;;;;;;5028919;28;20240;-66
2023/02/25 07:32:02;;;;;;;1.30;0.52;;;3.40;98.80;;;;;;5030915;28;20234;-67
2023/02/25 07:34:29;;;;;;;0.30;0.30;;;3.50;98.50;;;;;;5047141;28;20216;-67
2023/02/25 07:36:56;;;;;;;0.30;0.30;;;3.50;98.50;;;;;;5047229;28;20808;-67
2023/02/25 07:39:23;;;;;;;0.30;0.20;;;3.50;97.80;;;;;;5041713;28;20193;-66
2023/02/25 07:41:50;;;;;;;0.40;0.30;;;3.60;98.00;;;;;;5065280;28;20235;-67
2023/02/25 07:44:16;;;;;;;0.30;0.20;;;3.60;97.40;;;;;;5047898;28;20299;-66
2023/02/25 07:46:43;;;;;;;0.30;0.20;;;3.60;97.60;;;;;;5047811;28;20228;-66
2023/02/25 07:49:11;;;;;;;0.30;0.20;;;3.60;97.20;;;;;;5046597;28;20590;-67
2023/02/25 07:51:38;;;;;;;0.30;0.30;;;3.50;97.00;;;;;;5039471;28;20592;-69
2023/02/25 07:54:05;;;;;;;0.60;0.60;;;3.40;96.20;;;;;;5027382;28;20212;-69
2023/02/25 07:56:32;;;;;;;0.85;0.85;;;3.50;96.90;;;;;;5028493;28;20224;-68
2023/02/25 07:58:59;;;;;;;1.30;0.80;;;3.50;95.80;;;;;;5053940;28;20751;-68
2023/02/25 08:01:27;;;;;;;0.60;0.30;;;3.40;95.10;;;;;;5064781;28;20227;-69
2023/02/25 08:03:56;;;;;;;0.40;0.30;;;3.50;95.80;;;;;;5045129;28;20212;-68
2023/02/25 08:06:25;;;;;;;0.30;0.20;;;3.50;94.90;;;;;;5047049;28;20254;-68
2023/02/25 08:08:54;;;;;;;0.50;0.35;;;3.50;94.80;;;;;;5041904;28;20733;-67
2023/02/25 08:11:22;;;;;;;0.30;0.30;;;3.50;94.60;;;;;;5027321;28;20231;-69
2023/02/25 08:13:49;;;;;;;2.75;0.73;;;3.50;94.80;;;;;;5046460;28;20200;-68
2023/02/25 08:16:18;;;;;;;0.68;0.63;;;3.50;95.00;;;;;;5047186;28;20582;-68
2023/02/25 08:18:45;;;;;;;0.38;0.38;;;3.60;94.90;;;;;;5033195;28;20196;-68
2023/02/25 08:21:14;;;;;;;0.30;0.20;;;3.60;94.10;;;;;;5027110;28;20228;-68
2023/02/25 08:23:42;;;;;;;2.60;0.70;;;3.60;94.10;;;;;;5040256;28;20204;-67
2023/02/25 08:26:10;;;;;;;0.30;0.20;;;3.60;94.30;;;;;;5047261;28;20381;-68
2023/02/25 08:28:38;;;;;;;0.70;0.70;;;3.60;94.00;;;;;;5046050;28;20227;-69
2023/02/25 08:31:06;;;;;;;1.70;0.63;;;3.60;94.20;;;;;;5046300;28;20968;-68
2023/02/25 08:33:33;;;;;;;0.30;0.20;;;3.70;94.30;;;;;;5028569;28;20200;-68
2023/02/25 08:36:08;;;;;;;1.08;0.77;;;3.70;93.80;;;;;;5027199;28;20233;-68
2023/02/25 08:38:36;;;;;;;0.38;0.38;;;4.60;93.60;;;;;;5030729;28;20195;-69
2023/02/25 08:41:06;;;;;;;0.60;0.60;;;3.50;93.20;;;;;;5060053;28;20238;-69
2023/02/25 08:43:33;;;;;;;1.02;0.40;;;3.60;93.60;;;;;;5045916;28;20206;-68
2023/02/25 08:46:00;;;;;;;0.45;0.45;;;3.90;93.60;;;;;;5042326;28;20238;-68
2023/02/25 08:48:27;;;;;;;0.32;0.32;;;3.60;93.60;;;;;;5041549;28;20219;-68
2023/02/25 08:50:54;;;;;;;0.30;0.20;;;3.70;93.30;;;;;;5027194;28;20248;-67
2023/02/25 08:53:21;;;;;;;0.30;0.20;;;3.70;92.90;;;;;;5026689;28;20224;-68
2023/02/25 08:55:48;;;;;;;0.43;0.30;;;3.80;92.50;;;;;;5027143;28;20232;-68
2023/02/25 08:58:16;;;;;;;0.82;0.82;;;3.60;92.50;;;;;;5035335;28;20302;-69
2023/02/25 09:00:43;;;;;;;0.50;0.40;;;3.60;92.00;;;;;;5067099;28;20747;-68
2023/02/25 09:03:09;;;;;;;0.40;0.40;;;3.70;92.70;;;;;;5052590;28;20215;-68
2023/02/25 09:05:36;;;;;;;1.15;0.95;;;3.80;92.60;;;;;;5045142;28;20733;-67
2023/02/25 09:08:04;;;;;;;0.30;0.20;;;3.80;92.30;;;;;;5046341;28;20298;-69
2023/02/25 09:10:33;;;;;;;0.40;0.30;;;3.80;92.80;;;;;;5031740;28;20239;-68
2023/02/25 09:12:59;;;;;;;0.43;0.43;;;3.80;92.60;;;;;;5049994;28;20210;-69
2023/02/25 09:15:27;;;;;;;2.25;1.17;;;3.80;92.00;;;;;;5050485;28;20234;-68
2023/02/25 09:17:54;;;;;;;0.82;0.38;;;3.80;91.70;;;;;;5046762;28;20280;-68
2023/02/25 09:20:23;;;;;;;0.30;0.20;;;3.90;91.80;;;;;;5026507;28;20306;-68
2023/02/25 09:22:49;;;;;;;0.40;0.30;;;3.90;92.20;;;;;;5030554;28;20298;-68
2023/02/25 09:25:16;;;;;;;0.30;0.28;;;4.00;92.50;;;;;;5030353;28;20196;-69
2023/02/25 09:27:43;;;;;;;0.35;0.28;;;4.00;91.90;;;;;;5041717;28;20210;-68
2023/02/25 09:30:11;;;;;;;0.35;0.35;;;3.90;92.20;;;;;;5029230;28;20290;-68
2023/02/25 09:32:39;;;;;;;0.30;0.30;;;4.00;92.20;;;;;;5044016;28;20204;-67
2023/02/25 09:35:07;;;;;;;0.88;0.88;;;3.90;91.70;;;;;;5050208;28;20246;-68
2023/02/25 09:37:34;;;;;;;0.40;0.30;;;3.90;91.80;;;;;;5049379;28;20211;-68
2023/02/25 09:40:01;;;;;;;0.47;0.47;;;4.00;91.50;;;;;;5052219;28;20191;-69
2023/02/25 09:42:40;;;;;;;0.30;0.20;;;3.90;91.80;;;;;;5048124;28;20234;-68
2023/02/25 09:45:16;;;;;;;0.32;0.30;;;3.80;90.50;;;;;;5030290;28;20197;-68
2023/02/25 09:47:49;;;;;;;3.10;0.75;;;4.00;91.00;;;;;;5030061;28;20692;-69
2023/02/25 09:50:22;;;;;;;0.30;0.22;;;4.20;90.90;;;;;;5028878;28;20231;-68
2023/02/25 09:52:57;;;;;;;0.50;0.47;;;4.40;90.10;;;;;;5038633;28;20195;-70
2023/02/25 09:55:31;;;;;;;0.55;0.55;;;4.70;90.00;;;;;;5050163;28;20227;-68
2023/02/25 09:58:04;;;;;;;0.30;0.30;;;5.00;87.80;;;;;;5050558;28;20590;-68
2023/02/25 10:00:37;;;;;;;0.30;0.20;;;5.00;85.20;;;;;;5069680;28;20225;-68
2023/02/25 10:03:14;;;;;;;0.30;0.20;;;5.10;84.80;;;;;;5052062;28;20254;-68
2023/02/25 10:05:47;;;;;;;0.45;0.45;;;5.00;84.90;;;;;;5045709;28;20226;-69
2023/02/25 10:08:20;;;;;;;1.33;0.45;;;5.10;85.50;;;;;;5028717;28;20770;-68
2023/02/25 10:10:58;;;;;;;0.30;0.30;;;5.10;82.90;;;;;;5029917;28;20594;-69
2023/02/25 10:13:40;;;;;;;0.60;0.30;;;5.20;81.60;;;;;;5045004;28;20227;-69
2023/02/25 10:16:21;;;;;;;0.50;0.43;;;5.40;82.90;;;;;;5049634;28;20685;-69
2023/02/25 10:19:05;;;;;;;0.30;0.20;;;5.30;84.10;;;;;;5036059;28;20291;-68
2023/02/25 10:21:51;;;;;;;0.30;0.20;;;5.30;83.10;;;;;;5027174;28;20224;-68
2023/02/25 10:24:28;;;;;;;0.40;0.38;;;5.30;82.50;;;;;;5048675;28;20743;-68
2023/02/25 10:27:01;;;;;;;0.40;0.28;;;5.00;80.60;;;;;;5049564;28;20226;-68
2023/02/25 10:29:35;;;;;;;1.13;1.05;;;4.90;82.30;;;;;;5037493;28;20240;-68
2023/02/25 10:32:20;;;;;;;0.40;0.40;;;5.10;83.30;;;;;;5031857;28;20219;-68
2023/02/25 10:34:50;;;;;;;0.30;0.20;;;5.30;84.80;;;;;;5049520;28;20211;-68
2023/02/25 10:37:20;;;;;;;0.30;0.30;;;5.50;83.90;;;;;;5048766;28;20228;-69
2023/02/25 10:39:49;;;;;;;0.40;0.35;;;5.50;83.30;;;;;;5038812;28;20203;-68
2023/02/25 10:42:16;;;;;;;0.30;0.20;;;5.50;82.00;;;;;;5037448;28;20228;-69
2023/02/25 10:44:45;;;;;;;0.30;0.20;;;5.40;80.70;;;;;;5036654;28;20207;-69
2023/02/25 10:47:16;;;;;;;1.38;0.30;;;5.30;81.70;;;;;;5036966;28;20227;-70
2023/02/25 10:50:12;;;;;;;0.73;0.63;;;5.20;81.40;;;;;;5036297;28;20224;-68
2023/02/25 10:52:56;;;;;;;1.20;0.80;;;5.20;82.00;;;;;;5037778;28;20240;-70
2023/02/25 10:55:37;;;;;;;0.30;0.20;;;5.20;81.60;;;;;;5037417;28;20226;-68
2023/02/25 10:58:05;;;;;;;0.30;0.20;;;5.20;82.30;;;;;;5032068;28;20199;-69
2023/02/25 11:00:35;;;;;;;0.40;0.22;;;5.10;82.10;;;;;;5037036;28;20223;-68
2023/02/25 11:03:04;;;;;;;0.50;0.50;;;5.00;82.40;;;;;;5037064;28;20841;-68
2023/02/25 11:05:36;;;;;;;0.40;0.20;;;5.10;83.20;;;;;;5037025;28;20223;-68
2023/02/25 11:08:06;;;;;;;0.30;0.20;;;5.30;84.50;;;;;;5036932;28;20263;-69
2023/02/25 11:10:34;;;;;;;0.30;0.30;;;5.30;83.50;;;;;;5036554;28;20227;-69
2023/02/25 11:13:02;;;;;;;0.30;0.20;;;5.30;81.20;;;;;;5035572;28;20303;-69
2023/02/25 11:15:33;;;;;;;0.30;0.30;;;5.20;81.20;;;;;;5037229;28;20215;-69
2023/02/25 11:18:06;;;;;;;0.30;0.20;;;5.20;81.20;;;;;;5035159;28;20246;-69
2023/02/25 11:20:35;;;;;;;0.40;0.40;;;5.30;81.80;;;;;;5036541;28;20216;-70
2023/02/25 11:23:02;;;;;;;1.02;0.30;;;5.20;80.30;;;;;;5035720;28;20697;-68
2023/02/25 11:25:38;;;;;;;4.43;0.60;;;5.20;80.00;;;;;;5037200;28;20220;-69
2023/02/25 11:28:08;;;;;;;0.30;0.30;;;5.30;81.40;;;;;;5035742;28;20650;-69
2023/02/25 11:30:38;;;;;;;0.30;0.20;;;5.30;81.80;;;;;;5036058;28;20228;-68
2023/02/25 11:33:16;;;;;;;0.30;0.20;;;5.60;83.60;;;;;;5035820;28;20201;-68
2023/02/25 11:35:44;;;;;;;0.65;0.43;;;5.70;80.70;;;;;;5036473;28;20698;-68
2023/02/25 11:38:24;;;;;;;0.30;0.30;;;5.80;82.90;;;;;;5051438;28;20211;-68
2023/02/25 11:40:51;;;;;;;0.30;0.25;;;5.90;80.60;;;;;;5055168;28;20223;-69
2023/02/25 11:43:20;;;;;;;0.30;0.20;;;5.80;81.40;;;;;;5054736;28;20199;-69
2023/02/25 11:45:51;;;;;;;0.73;0.63;;;5.40;81.10;;;;;;5041409;28;20208;-69
2023/02/25 11:48:21;;;;;;;0.30;0.20;;;5.40;82.70;;;;;;5043630;28;20654;-68
2023/02/25 11:50:55;;;;;;;0.90;0.35;;;5.30;83.40;;;;;;5050005;28;20231;-69
2023/02/25 11:53:34;;;;;;;1.27;0.52;;;5.10;82.30;;;;;;5046617;28;20210;-68
2023/02/25 11:56:10;;;;;;;0.30;0.20;;;5.00;82.30;;;;;;5047989;28;20285;-69
2023/02/25 11:58:53;;;;;;;0.30;0.20;;;4.90;82.80;;;;;;5055065;28;20288;-68
2023/02/25 12:01:30;;;;;;;0.47;0.40;;;4.90;81.80;;;;;;5047618;28;20232;-68
2023/02/25 12:04:16;;;;;;;3.30;2.25;;;4.90;82.00;;;;;;5047425;28;20237;-68
2023/02/25 12:07:07;;;;;;;0.30;0.20;;;4.90;83.60;;;;;;5042806;28;20215;-66
2023/02/25 12:10:03;;;;;;;0.30;0.30;;;4.90;83.20;;;;;;5046330;28;20706;-67
2023/02/25 12:12:58;;;;;;;0.30;0.30;;;4.90;82.90;;;;;;5028632;28;20267;-67
2023/02/25 12:15:48;;;;;;;0.30;0.20;;;4.90;83.50;;;;;;5027263;28;20228;-66
2023/02/25 12:18:46;;;;;;;0.60;0.60;;;4.90;82.70;;;;;;5025986;28;20207;-68
2023/02/25 12:21:49;;;;;;;0.30;0.30;;;4.90;83.40;;;;;;5042333;28;20226;-68
2023/02/25 12:24:49;;;;;;;0.30;0.20;;;4.90;84.50;;;;;;5040789;28;20208;-68
2023/02/25 12:27:47;;;;;;;0.40;0.30;;;5.00;84.10;;;;;;5035980;28;20212;-67
2023/02/25 12:30:49;;;;;;;0.30;0.20;;;5.00;85.20;;;;;;5045402;28;20243;-67
2023/02/25 12:33:30;;;;;;;0.35;0.35;;;5.10;85.00;;;;;;5033364;28;20208;-67
2023/02/25 12:36:11;;;;;;;0.47;0.30;;;5.20;85.10;;;;;;5027415;28;20618;-67
2023/02/25 12:39:16;;;;;;;0.30;0.30;;;5.00;83.90;;;;;;5028795;28;20192;-67
2023/02/25 12:41:47;;;;;;;0.57;0.50;;;4.90;84.40;;;;;;5028295;28;20336;-67
2023/02/25 12:44:58;;;;;;;0.65;0.57;;;5.00;85.30;;;;;;5046778;28;20657;-67
2023/02/25 12:47:37;;;;;;;0.95;0.73;;;5.00;86.70;;;;;;5004806;28;20236;-68
2023/02/25 12:50:33;;;;;;;0.68;0.68;;;5.00;85.40;;;;;;5025854;28;20258;-67
2023/02/25 12:53:13;;;;;;;0.30;0.20;;;5.00;86.90;;;;;;5034215;28;20199;-67
2023/02/25 12:56:08;;;;;;;0.30;0.20;;;5.00;87.20;;;;;;5046871;28;20235;-67
2023/02/25 12:59:09;;;;;;;0.30;0.20;;;4.80;88.30;;;;;;5049512;28;20673;-67
2023/02/25 13:01:51;;;;;;;0.40;0.32;;;4.70;89.70;;;;;;5065219;28;20773;-67
2023/02/25 13:04:34;;;;;;;1.45;1.35;;;4.60;90.30;;;;;;5046574;28;20206;-67
2023/02/25 13:07:35;;;;;;;0.30;0.20;;;4.40;90.60;;;;;;5046763;28;20231;-68
2023/02/25 13:10:36;;;;;;;0.55;0.55;;;4.40;90.90;;;;;;5040653;28;20207;-67
2023/02/25 13:13:18;;;;;;;5.55;1.50;;;4.50;91.30;;;;;;5035124;28;20701;-67
2023/02/25 13:16:00;;;;;;;0.70;0.57;;;4.40;91.70;;;;;;5027274;28;20334;-67
2023/02/25 13:18:35;;;;;;;0.55;0.40;;;4.30;92.30;;;;;;5033709;28;20865;-67
2023/02/25 13:21:24;;;;;;;0.30;0.30;;;4.30;92.80;;;;;;5044991;28;20230;-67